sensor_id;sensor_type;location;lat;lon;timestamp;P1;durP1;ratioP1;P2;durP2;ratioP2
19173;SDS011;9719;49.322;8.536;2023-04-16T00:03:35;5.50;;;3.05;;
19173;SDS011;9719;49.322;8.536;2023-04-16T00:08:38;3.10;;;2.88;;
19173;SDS011;9719;49.322;8.536;2023-04-16T00:13:42;4.10;;;3.75;;
19173;SDS011;9719;49.322;8.536;2023-04-16T00:18:43;2.40;;;2.17;;
19173;SDS011;9719;49.322;8.536;2023-04-16T00:23:46;3.53;;;3.22;;
19173;SDS011;9719;49.322;8.536;2023-04-16T00:28:48;5.30;;;3.03;;
19173;SDS011;9719;49.322;8.536;2023-04-16T00:33:50;4.65;;;3.22;;
19173;SDS011;9719;49.322;8.536;2023-04-16T00:38:53;5.43;;;3.17;;
19173;SDS011;9719;49.322;8.536;2023-04-16T00:43:55;3.78;;;3.40;;
19173;SDS011;9719;49.322;8.536;2023-04-16T00:48:58;5.72;;;3.58;;
19173;SDS011;9719;49.322;8.536;2023-04-16T00:54:02;5.80;;;4.40;;
19173;SDS011;9719;49.322;8.536;2023-04-16T00:59:04;4.85;;;3.30;;
19173;SDS011;9719;49.322;8.536;2023-04-16T01:04:06;4.57;;;3.22;;
19173;SDS011;9719;49.322;8.536;2023-04-16T01:09:09;4.35;;;3.58;;
19173;SDS011;9719;49.322;8.536;2023-04-16T01:14:11;2.88;;;2.45;;
19173;SDS011;9719;49.322;8.536;2023-04-16T01:19:13;4.30;;;3.30;;
19173;SDS011;9719;49.322;8.536;2023-04-16T01:24:16;3.08;;;2.78;;
19173;SDS011;9719;49.322;8.536;2023-04-16T01:29:18;4.05;;;3.30;;
19173;SDS011;9719;49.322;8.536;2023-04-16T01:34:19;4.38;;;3.20;;
19173;SDS011;9719;49.322;8.536;2023-04-16T01:39:22;5.57;;;4.03;;
19173;SDS011;9719;49.322;8.536;2023-04-16T01:44:24;4.70;;;3.30;;
19173;SDS011;9719;49.322;8.536;2023-04-16T01:49:26;2.85;;;2.60;;
19173;SDS011;9719;49.322;8.536;2023-04-16T01:54:31;4.18;;;3.40;;
19173;SDS011;9719;49.322;8.536;2023-04-16T01:59:33;4.43;;;3.80;;
19173;SDS011;9719;49.322;8.536;2023-04-16T02:04:35;5.95;;;3.30;;
19173;SDS011;9719;49.322;8.536;2023-04-16T02:09:39;4.82;;;3.03;;
19173;SDS011;9719;49.322;8.536;2023-04-16T02:14:41;5.53;;;3.85;;
19173;SDS011;9719;49.322;8.536;2023-04-16T02:19:43;3.45;;;3.25;;
19173;SDS011;9719;49.322;8.536;2023-04-16T02:24:46;3.83;;;3.33;;
19173;SDS011;9719;49.322;8.536;2023-04-16T02:29:49;4.63;;;3.78;;
19173;SDS011;9719;49.322;8.536;2023-04-16T02:34:51;4.28;;;3.10;;
19173;SDS011;9719;49.322;8.536;2023-04-16T02:39:54;5.45;;;3.95;;
19173;SDS011;9719;49.322;8.536;2023-04-16T02:44:56;3.80;;;2.72;;
19173;SDS011;9719;49.322;8.536;2023-04-16T02:49:58;4.35;;;3.13;;
19173;SDS011;9719;49.322;8.536;2023-04-16T02:55:01;5.95;;;3.88;;
19173;SDS011;9719;49.322;8.536;2023-04-16T03:00:03;6.03;;;3.40;;
19173;SDS011;9719;49.322;8.536;2023-04-16T03:05:06;5.20;;;3.42;;
19173;SDS011;9719;49.322;8.536;2023-04-16T03:10:10;3.70;;;2.85;;
19173;SDS011;9719;49.322;8.536;2023-04-16T03:15:12;3.95;;;3.38;;
19173;SDS011;9719;49.322;8.536;2023-04-16T03:20:14;5.68;;;3.63;;
19173;SDS011;9719;49.322;8.536;2023-04-16T03:25:18;5.47;;;4.20;;
19173;SDS011;9719;49.322;8.536;2023-04-16T03:30:20;4.95;;;4.10;;
19173;SDS011;9719;49.322;8.536;2023-04-16T03:35:22;4.95;;;2.78;;
19173;SDS011;9719;49.322;8.536;2023-04-16T03:40:25;6.50;;;3.33;;
19173;SDS011;9719;49.322;8.536;2023-04-16T03:45:26;5.65;;;3.92;;
19173;SDS011;9719;49.322;8.536;2023-04-16T03:50:28;5.47;;;3.42;;
19173;SDS011;9719;49.322;8.536;2023-04-16T03:55:31;4.53;;;4.10;;
19173;SDS011;9719;49.322;8.536;2023-04-16T04:00:33;5.00;;;3.70;;
19173;SDS011;9719;49.322;8.536;2023-04-16T04:05:35;6.28;;;4.25;;
19173;SDS011;9719;49.322;8.536;2023-04-16T04:10:38;4.68;;;3.63;;
19173;SDS011;9719;49.322;8.536;2023-04-16T04:15:40;5.72;;;3.65;;
19173;SDS011;9719;49.322;8.536;2023-04-16T04:20:42;7.53;;;4.70;;
19173;SDS011;9719;49.322;8.536;2023-04-16T04:25:46;4.90;;;4.07;;
19173;SDS011;9719;49.322;8.536;2023-04-16T04:30:47;4.88;;;4.10;;
19173;SDS011;9719;49.322;8.536;2023-04-16T04:35:49;5.30;;;4.13;;
19173;SDS011;9719;49.322;8.536;2023-04-16T04:40:52;3.88;;;3.53;;
19173;SDS011;9719;49.322;8.536;2023-04-16T04:45:54;5.70;;;3.85;;
19173;SDS011;9719;49.322;8.536;2023-04-16T04:50:56;6.15;;;3.92;;
19173;SDS011;9719;49.322;8.536;2023-04-16T04:55:59;3.38;;;3.05;;
19173;SDS011;9719;49.322;8.536;2023-04-16T05:01:00;6.15;;;3.55;;
19173;SDS011;9719;49.322;8.536;2023-04-16T05:06:02;6.25;;;3.20;;
19173;SDS011;9719;49.322;8.536;2023-04-16T05:11:06;3.10;;;2.75;;
19173;SDS011;9719;49.322;8.536;2023-04-16T05:16:07;3.50;;;3.22;;
19173;SDS011;9719;49.322;8.536;2023-04-16T05:21:09;2.88;;;2.40;;
19173;SDS011;9719;49.322;8.536;2023-04-16T05:26:12;6.03;;;3.05;;
19173;SDS011;9719;49.322;8.536;2023-04-16T05:31:14;3.75;;;3.45;;
19173;SDS011;9719;49.322;8.536;2023-04-16T05:36:15;3.03;;;2.72;;
19173;SDS011;9719;49.322;8.536;2023-04-16T05:41:18;4.05;;;3.70;;
19173;SDS011;9719;49.322;8.536;2023-04-16T05:46:20;3.97;;;2.42;;
19173;SDS011;9719;49.322;8.536;2023-04-16T05:51:22;3.13;;;2.92;;
19173;SDS011;9719;49.322;8.536;2023-04-16T05:56:27;3.45;;;2.72;;
19173;SDS011;9719;49.322;8.536;2023-04-16T06:01:29;3.67;;;2.92;;
19173;SDS011;9719;49.322;8.536;2023-04-16T06:06:31;3.03;;;2.83;;
19173;SDS011;9719;49.322;8.536;2023-04-16T06:11:34;3.17;;;2.88;;
19173;SDS011;9719;49.322;8.536;2023-04-16T06:16:35;4.07;;;2.72;;
19173;SDS011;9719;49.322;8.536;2023-04-16T06:21:37;3.13;;;2.92;;
19173;SDS011;9719;49.322;8.536;2023-04-16T06:26:40;5.97;;;3.00;;
19173;SDS011;9719;49.322;8.536;2023-04-16T06:31:42;3.70;;;3.10;;
19173;SDS011;9719;49.322;8.536;2023-04-16T06:36:44;5.57;;;3.25;;
19173;SDS011;9719;49.322;8.536;2023-04-16T06:41:47;2.47;;;2.28;;
19173;SDS011;9719;49.322;8.536;2023-04-16T06:46:49;3.80;;;2.58;;
19173;SDS011;9719;49.322;8.536;2023-04-16T06:51:50;5.45;;;2.80;;
19173;SDS011;9719;49.322;8.536;2023-04-16T06:56:53;3.50;;;2.65;;
19173;SDS011;9719;49.322;8.536;2023-04-16T07:01:55;4.18;;;3.72;;
19173;SDS011;9719;49.322;8.536;2023-04-16T07:06:57;3.15;;;2.85;;
19173;SDS011;9719;49.322;8.536;2023-04-16T07:12:00;3.28;;;2.97;;
19173;SDS011;9719;49.322;8.536;2023-04-16T07:17:02;4.30;;;2.67;;
19173;SDS011;9719;49.322;8.536;2023-04-16T07:22:03;3.15;;;2.80;;
19173;SDS011;9719;49.322;8.536;2023-04-16T07:27:06;4.78;;;3.75;;
19173;SDS011;9719;49.322;8.536;2023-04-16T07:32:08;3.60;;;3.30;;
19173;SDS011;9719;49.322;8.536;2023-04-16T07:37:10;4.75;;;3.63;;
19173;SDS011;9719;49.322;8.536;2023-04-16T07:42:13;3.95;;;2.60;;
19173;SDS011;9719;49.322;8.536;2023-04-16T07:47:15;4.10;;;2.58;;
19173;SDS011;9719;49.322;8.536;2023-04-16T07:52:16;3.40;;;2.88;;
19173;SDS011;9719;49.322;8.536;2023-04-16T07:57:20;3.72;;;2.47;;
19173;SDS011;9719;49.322;8.536;2023-04-16T08:02:21;4.43;;;3.30;;
19173;SDS011;9719;49.322;8.536;2023-04-16T08:07:23;4.13;;;3.67;;
19173;SDS011;9719;49.322;8.536;2023-04-16T08:12:26;4.20;;;3.80;;
19173;SDS011;9719;49.322;8.536;2023-04-16T08:17:29;5.30;;;4.55;;
19173;SDS011;9719;49.322;8.536;2023-04-16T08:22:32;3.80;;;3.17;;
19173;SDS011;9719;49.322;8.536;2023-04-16T08:27:35;6.45;;;2.67;;
19173;SDS011;9719;49.322;8.536;2023-04-16T08:32:37;3.70;;;3.40;;
19173;SDS011;9719;49.322;8.536;2023-04-16T08:37:38;3.33;;;3.03;;
19173;SDS011;9719;49.322;8.536;2023-04-16T08:42:43;4.57;;;4.18;;
19173;SDS011;9719;49.322;8.536;2023-04-16T08:47:49;3.78;;;3.38;;
19173;SDS011;9719;49.322;8.536;2023-04-16T08:52:52;3.75;;;3.05;;
19173;SDS011;9719;49.322;8.536;2023-04-16T08:58:01;5.10;;;2.85;;
19173;SDS011;9719;49.322;8.536;2023-04-16T09:03:08;4.55;;;3.88;;
19173;SDS011;9719;49.322;8.536;2023-04-16T09:08:10;3.40;;;3.10;;
19173;SDS011;9719;49.322;8.536;2023-04-16T09:13:13;2.97;;;2.78;;
19173;SDS011;9719;49.322;8.536;2023-04-16T09:18:16;4.07;;;3.30;;
19173;SDS011;9719;49.322;8.536;2023-04-16T09:23:19;4.25;;;3.03;;
19173;SDS011;9719;49.322;8.536;2023-04-16T09:28:38;2.70;;;2.47;;
19173;SDS011;9719;49.322;8.536;2023-04-16T09:33:41;4.15;;;2.58;;
19173;SDS011;9719;49.322;8.536;2023-04-16T09:38:47;2.85;;;2.65;;
19173;SDS011;9719;49.322;8.536;2023-04-16T09:43:54;2.63;;;2.38;;
19173;SDS011;9719;49.322;8.536;2023-04-16T09:48:57;2.60;;;2.08;;
19173;SDS011;9719;49.322;8.536;2023-04-16T09:53:58;3.40;;;2.80;;
19173;SDS011;9719;49.322;8.536;2023-04-16T09:59:06;2.78;;;2.55;;
19173;SDS011;9719;49.322;8.536;2023-04-16T10:04:09;4.57;;;2.75;;
19173;SDS011;9719;49.322;8.536;2023-04-16T10:09:10;3.30;;;2.63;;
19173;SDS011;9719;49.322;8.536;2023-04-16T10:14:13;3.28;;;2.67;;
19173;SDS011;9719;49.322;8.536;2023-04-16T10:19:15;3.20;;;2.70;;
19173;SDS011;9719;49.322;8.536;2023-04-16T10:24:17;5.40;;;2.75;;
19173;SDS011;9719;49.322;8.536;2023-04-16T10:29:20;5.15;;;3.35;;
19173;SDS011;9719;49.322;8.536;2023-04-16T10:34:23;3.30;;;3.00;;
19173;SDS011;9719;49.322;8.536;2023-04-16T10:39:26;3.40;;;3.10;;
19173;SDS011;9719;49.322;8.536;2023-04-16T10:44:30;3.85;;;3.03;;
19173;SDS011;9719;49.322;8.536;2023-04-16T10:49:31;4.65;;;3.17;;
19173;SDS011;9719;49.322;8.536;2023-04-16T10:54:35;4.72;;;3.78;;
19173;SDS011;9719;49.322;8.536;2023-04-16T10:59:40;3.75;;;2.88;;
19173;SDS011;9719;49.322;8.536;2023-04-16T11:04:43;2.88;;;2.65;;
19173;SDS011;9719;49.322;8.536;2023-04-16T11:09:55;3.08;;;2.47;;
19173;SDS011;9719;49.322;8.536;2023-04-16T11:15:00;4.35;;;3.08;;
19173;SDS011;9719;49.322;8.536;2023-04-16T11:20:04;2.97;;;2.78;;
19173;SDS011;9719;49.322;8.536;2023-04-16T11:25:06;4.32;;;3.22;;
19173;SDS011;9719;49.322;8.536;2023-04-16T11:30:10;3.97;;;3.45;;
19173;SDS011;9719;49.322;8.536;2023-04-16T11:35:14;4.95;;;3.13;;
19173;SDS011;9719;49.322;8.536;2023-04-16T11:40:16;4.82;;;3.03;;
19173;SDS011;9719;49.322;8.536;2023-04-16T11:45:19;3.38;;;3.08;;
19173;SDS011;9719;49.322;8.536;2023-04-16T11:50:21;4.05;;;3.60;;
19173;SDS011;9719;49.322;8.536;2023-04-16T11:55:24;4.60;;;3.13;;
19173;SDS011;9719;49.322;8.536;2023-04-16T12:00:28;3.95;;;3.65;;
19173;SDS011;9719;49.322;8.536;2023-04-16T12:05:35;3.67;;;3.38;;
19173;SDS011;9719;49.322;8.536;2023-04-16T12:10:53;4.50;;;3.80;;
19173;SDS011;9719;49.322;8.536;2023-04-16T12:15:56;4.22;;;3.83;;
19173;SDS011;9719;49.322;8.536;2023-04-16T12:20:58;5.57;;;3.67;;
19173;SDS011;9719;49.322;8.536;2023-04-16T12:26:06;5.70;;;4.15;;
19173;SDS011;9719;49.322;8.536;2023-04-16T12:31:12;9.55;;;4.07;;
19173;SDS011;9719;49.322;8.536;2023-04-16T12:36:18;4.32;;;3.92;;
19173;SDS011;9719;49.322;8.536;2023-04-16T12:41:20;5.18;;;3.70;;
19173;SDS011;9719;49.322;8.536;2023-04-16T12:46:23;5.07;;;3.97;;
19173;SDS011;9719;49.322;8.536;2023-04-16T12:51:25;4.40;;;3.65;;
19173;SDS011;9719;49.322;8.536;2023-04-16T12:56:27;10.02;;;4.10;;
19173;SDS011;9719;49.322;8.536;2023-04-16T13:01:30;5.55;;;3.33;;
19173;SDS011;9719;49.322;8.536;2023-04-16T13:06:35;5.68;;;3.38;;
19173;SDS011;9719;49.322;8.536;2023-04-16T13:11:36;4.45;;;3.85;;
19173;SDS011;9719;49.322;8.536;2023-04-16T13:16:41;5.15;;;4.05;;
19173;SDS011;9719;49.322;8.536;2023-04-16T13:21:42;4.47;;;3.78;;
19173;SDS011;9719;49.322;8.536;2023-04-16T13:26:44;3.33;;;3.10;;
19173;SDS011;9719;49.322;8.536;2023-04-16T13:31:47;4.03;;;3.35;;
19173;SDS011;9719;49.322;8.536;2023-04-16T13:36:49;5.70;;;4.40;;
19173;SDS011;9719;49.322;8.536;2023-04-16T13:41:51;3.95;;;3.22;;
19173;SDS011;9719;49.322;8.536;2023-04-16T13:46:54;5.22;;;4.68;;
19173;SDS011;9719;49.322;8.536;2023-04-16T13:51:56;5.30;;;3.85;;
19173;SDS011;9719;49.322;8.536;2023-04-16T13:56:57;9.30;;;5.45;;
19173;SDS011;9719;49.322;8.536;2023-04-16T14:02:00;6.00;;;3.80;;
19173;SDS011;9719;49.322;8.536;2023-04-16T14:07:04;6.30;;;4.93;;
19173;SDS011;9719;49.322;8.536;2023-04-16T14:12:05;5.25;;;3.90;;
19173;SDS011;9719;49.322;8.536;2023-04-16T14:17:09;6.72;;;4.90;;
19173;SDS011;9719;49.322;8.536;2023-04-16T14:22:10;5.70;;;4.28;;
19173;SDS011;9719;49.322;8.536;2023-04-16T14:27:16;6.95;;;4.63;;
19173;SDS011;9719;49.322;8.536;2023-04-16T14:32:19;4.90;;;4.38;;
19173;SDS011;9719;49.322;8.536;2023-04-16T14:37:21;4.50;;;4.10;;
19173;SDS011;9719;49.322;8.536;2023-04-16T14:42:23;7.10;;;4.22;;
19173;SDS011;9719;49.322;8.536;2023-04-16T14:47:26;7.95;;;5.78;;
19173;SDS011;9719;49.322;8.536;2023-04-16T14:52:29;5.60;;;4.25;;
19173;SDS011;9719;49.322;8.536;2023-04-16T14:57:31;7.97;;;5.50;;
19173;SDS011;9719;49.322;8.536;2023-04-16T15:02:34;5.20;;;3.97;;
19173;SDS011;9719;49.322;8.536;2023-04-16T15:07:36;7.15;;;4.60;;
19173;SDS011;9719;49.322;8.536;2023-04-16T15:12:37;7.85;;;4.50;;
19173;SDS011;9719;49.322;8.536;2023-04-16T15:17:41;5.68;;;4.00;;
19173;SDS011;9719;49.322;8.536;2023-04-16T15:22:43;6.32;;;5.30;;
19173;SDS011;9719;49.322;8.536;2023-04-16T15:27:45;6.25;;;4.43;;
19173;SDS011;9719;49.322;8.536;2023-04-16T15:32:48;7.32;;;4.28;;
19173;SDS011;9719;49.322;8.536;2023-04-16T15:37:49;7.15;;;5.57;;
19173;SDS011;9719;49.322;8.536;2023-04-16T15:42:51;6.43;;;4.80;;
19173;SDS011;9719;49.322;8.536;2023-04-16T15:47:57;9.65;;;4.65;;
19173;SDS011;9719;49.322;8.536;2023-04-16T15:52:58;6.88;;;5.10;;
19173;SDS011;9719;49.322;8.536;2023-04-16T15:58:00;6.93;;;4.85;;
19173;SDS011;9719;49.322;8.536;2023-04-16T16:03:03;8.10;;;4.88;;
19173;SDS011;9719;49.322;8.536;2023-04-16T16:08:05;6.88;;;4.70;;
19173;SDS011;9719;49.322;8.536;2023-04-16T16:13:07;8.95;;;5.15;;
19173;SDS011;9719;49.322;8.536;2023-04-16T16:18:13;5.75;;;4.50;;
19173;SDS011;9719;49.322;8.536;2023-04-16T16:23:15;6.10;;;4.72;;
19173;SDS011;9719;49.322;8.536;2023-04-16T16:28:16;5.82;;;4.65;;
19173;SDS011;9719;49.322;8.536;2023-04-16T16:33:20;8.60;;;5.90;;
19173;SDS011;9719;49.322;8.536;2023-04-16T16:38:22;5.75;;;4.40;;
19173;SDS011;9719;49.322;8.536;2023-04-16T16:43:24;6.60;;;4.40;;
19173;SDS011;9719;49.322;8.536;2023-04-16T16:48:27;6.68;;;5.20;;
19173;SDS011;9719;49.322;8.536;2023-04-16T16:53:29;5.97;;;5.43;;
19173;SDS011;9719;49.322;8.536;2023-04-16T16:58:31;5.10;;;4.63;;
19173;SDS011;9719;49.322;8.536;2023-04-16T17:03:34;5.57;;;4.80;;
19173;SDS011;9719;49.322;8.536;2023-04-16T17:08:36;5.05;;;4.43;;
19173;SDS011;9719;49.322;8.536;2023-04-16T17:13:37;6.35;;;4.75;;
19173;SDS011;9719;49.322;8.536;2023-04-16T17:18:40;6.10;;;5.22;;
19173;SDS011;9719;49.322;8.536;2023-04-16T17:23:42;6.32;;;4.75;;
19173;SDS011;9719;49.322;8.536;2023-04-16T17:28:44;5.15;;;4.45;;
19173;SDS011;9719;49.322;8.536;2023-04-16T17:33:47;4.78;;;4.28;;
19173;SDS011;9719;49.322;8.536;2023-04-16T17:38:50;4.20;;;3.80;;
19173;SDS011;9719;49.322;8.536;2023-04-16T17:43:51;6.68;;;4.30;;
19173;SDS011;9719;49.322;8.536;2023-04-16T17:48:54;5.20;;;4.68;;
19173;SDS011;9719;49.322;8.536;2023-04-16T17:53:56;4.68;;;3.75;;
19173;SDS011;9719;49.322;8.536;2023-04-16T17:58:58;6.55;;;4.47;;
19173;SDS011;9719;49.322;8.536;2023-04-16T18:04:01;7.22;;;4.65;;
19173;SDS011;9719;49.322;8.536;2023-04-16T18:09:03;39.85;;;23.48;;
19173;SDS011;9719;49.322;8.536;2023-04-16T18:14:05;27.63;;;14.02;;
19173;SDS011;9719;49.322;8.536;2023-04-16T18:19:10;22.27;;;11.68;;
19173;SDS011;9719;49.322;8.536;2023-04-16T18:24:11;11.65;;;8.13;;
19173;SDS011;9719;49.322;8.536;2023-04-16T18:29:14;10.88;;;7.68;;
19173;SDS011;9719;49.322;8.536;2023-04-16T18:34:17;18.08;;;10.38;;
19173;SDS011;9719;49.322;8.536;2023-04-16T18:39:19;11.82;;;6.85;;
19173;SDS011;9719;49.322;8.536;2023-04-16T18:44:21;10.15;;;6.90;;
19173;SDS011;9719;49.322;8.536;2023-04-16T18:49:24;8.40;;;6.05;;
19173;SDS011;9719;49.322;8.536;2023-04-16T18:54:26;9.77;;;5.70;;
19173;SDS011;9719;49.322;8.536;2023-04-16T18:59:28;8.90;;;6.05;;
19173;SDS011;9719;49.322;8.536;2023-04-16T19:04:31;6.30;;;5.57;;
19173;SDS011;9719;49.322;8.536;2023-04-16T19:09:33;5.35;;;4.85;;
19173;SDS011;9719;49.322;8.536;2023-04-16T19:14:34;6.57;;;4.53;;
19173;SDS011;9719;49.322;8.536;2023-04-16T19:19:37;5.72;;;4.55;;
19173;SDS011;9719;49.322;8.536;2023-04-16T19:24:39;5.18;;;4.53;;
19173;SDS011;9719;49.322;8.536;2023-04-16T19:29:41;5.03;;;4.63;;
19173;SDS011;9719;49.322;8.536;2023-04-16T19:34:45;5.55;;;4.45;;
19173;SDS011;9719;49.322;8.536;2023-04-16T19:39:47;5.50;;;4.05;;
19173;SDS011;9719;49.322;8.536;2023-04-16T19:44:49;6.13;;;4.63;;
19173;SDS011;9719;49.322;8.536;2023-04-16T19:49:52;4.40;;;4.00;;
19173;SDS011;9719;49.322;8.536;2023-04-16T19:54:54;8.15;;;4.55;;
19173;SDS011;9719;49.322;8.536;2023-04-16T19:59:55;7.75;;;5.20;;
19173;SDS011;9719;49.322;8.536;2023-04-16T20:05:00;7.80;;;5.18;;
19173;SDS011;9719;49.322;8.536;2023-04-16T20:10:02;5.85;;;5.22;;
19173;SDS011;9719;49.322;8.536;2023-04-16T20:15:05;5.93;;;4.60;;
19173;SDS011;9719;49.322;8.536;2023-04-16T20:20:09;5.25;;;4.75;;
19173;SDS011;9719;49.322;8.536;2023-04-16T20:25:14;5.97;;;4.40;;
19173;SDS011;9719;49.322;8.536;2023-04-16T20:30:17;4.78;;;4.15;;
19173;SDS011;9719;49.322;8.536;2023-04-16T20:35:22;5.18;;;4.65;;
19173;SDS011;9719;49.322;8.536;2023-04-16T20:40:24;4.65;;;4.25;;
19173;SDS011;9719;49.322;8.536;2023-04-16T20:45:29;6.32;;;3.97;;
19173;SDS011;9719;49.322;8.536;2023-04-16T20:50:38;4.78;;;3.30;;
19173;SDS011;9719;49.322;8.536;2023-04-16T20:55:41;4.10;;;3.50;;
19173;SDS011;9719;49.322;8.536;2023-04-16T21:00:45;4.57;;;4.18;;
19173;SDS011;9719;49.322;8.536;2023-04-16T21:05:50;3.15;;;2.92;;
19173;SDS011;9719;49.322;8.536;2023-04-16T21:10:53;5.18;;;3.92;;
19173;SDS011;9719;49.322;8.536;2023-04-16T21:15:54;5.07;;;4.00;;
19173;SDS011;9719;49.322;8.536;2023-04-16T21:20:58;6.28;;;4.38;;
19173;SDS011;9719;49.322;8.536;2023-04-16T21:25:59;5.30;;;3.63;;
19173;SDS011;9719;49.322;8.536;2023-04-16T21:31:01;4.40;;;4.00;;
19173;SDS011;9719;49.322;8.536;2023-04-16T21:36:04;6.85;;;4.45;;
19173;SDS011;9719;49.322;8.536;2023-04-16T21:41:06;5.55;;;4.22;;
19173;SDS011;9719;49.322;8.536;2023-04-16T21:46:08;5.00;;;4.50;;
19173;SDS011;9719;49.322;8.536;2023-04-16T21:51:11;4.53;;;3.85;;
19173;SDS011;9719;49.322;8.536;2023-04-16T21:56:13;4.30;;;3.80;;
19173;SDS011;9719;49.322;8.536;2023-04-16T22:01:15;5.25;;;3.40;;
19173;SDS011;9719;49.322;8.536;2023-04-16T22:06:18;4.32;;;3.65;;
19173;SDS011;9719;49.322;8.536;2023-04-16T22:11:20;4.18;;;3.67;;
19173;SDS011;9719;49.322;8.536;2023-04-16T22:16:22;4.25;;;3.85;;
19173;SDS011;9719;49.322;8.536;2023-04-16T22:21:25;4.50;;;3.40;;
19173;SDS011;9719;49.322;8.536;2023-04-16T22:26:27;4.95;;;4.13;;
19173;SDS011;9719;49.322;8.536;2023-04-16T22:31:29;4.88;;;4.22;;
19173;SDS011;9719;49.322;8.536;2023-04-16T22:36:32;4.03;;;3.45;;
19173;SDS011;9719;49.322;8.536;2023-04-16T22:41:34;5.15;;;4.10;;
19173;SDS011;9719;49.322;8.536;2023-04-16T22:46:35;3.95;;;3.53;;
19173;SDS011;9719;49.322;8.536;2023-04-16T22:51:38;4.93;;;3.88;;
19173;SDS011;9719;49.322;8.536;2023-04-16T22:56:40;6.70;;;3.58;;
19173;SDS011;9719;49.322;8.536;2023-04-16T23:01:42;5.20;;;4.57;;
19173;SDS011;9719;49.322;8.536;2023-04-16T23:06:45;4.47;;;3.90;;
19173;SDS011;9719;49.322;8.536;2023-04-16T23:11:46;6.47;;;4.13;;
19173;SDS011;9719;49.322;8.536;2023-04-16T23:16:48;4.50;;;3.50;;
19173;SDS011;9719;49.322;8.536;2023-04-16T23:21:51;8.00;;;4.65;;
19173;SDS011;9719;49.322;8.536;2023-04-16T23:26:53;3.60;;;3.35;;
19173;SDS011;9719;49.322;8.536;2023-04-16T23:31:55;4.55;;;4.15;;
19173;SDS011;9719;49.322;8.536;2023-04-16T23:36:58;3.08;;;2.85;;
19173;SDS011;9719;49.322;8.536;2023-04-16T23:42:00;8.75;;;3.97;;
19173;SDS011;9719;49.322;8.536;2023-04-16T23:47:02;4.25;;;3.55;;
19173;SDS011;9719;49.322;8.536;2023-04-16T23:52:05;4.65;;;3.42;;
19173;SDS011;9719;49.322;8.536;2023-04-16T23:57:07;7.70;;;4.88;;
